LEAL/ALC METAR and TAF weather

Enter ICAO airport designator
Station Type Date Time Source
LEAL METAR 2019/02/23 00:30 UTC NOAA

LEAL 230030Z 26005KT 240V300 CAVOK 09/04 Q1027 NOSIG


Station Type Date Time Source
LEAL Decoded METAR 2019/02/23 00:30 UTC NOAA

Alicante / El Altet, Spain (LEAL) 38-17N 000-33W 31M
Feb 22, 2019 - 07:30 PM EST / 2019.02.23 0030 UTC
Wind: from the W (260 degrees) at 6 MPH (5 KT) (direction variable):0
Visibility: greater than 7 mile(s):0
Temperature: 48 F (9 C)
Dew Point: 39 F (4 C)
Relative Humidity: 70%
Pressure (altimeter): 30.33 in. Hg (1027 hPa)
ob: LEAL 230030Z 26005KT 240V300 CAVOK 09/04 Q1027 NOSIG
cycle: 0

Station Type Date Time Source
LEAL TAF 2019/02/22 18:27 UTC NOAA

TAF TAF LEAL 221700Z 2218/2318 18008KT 9999 FEW030 TX21/2313Z TN08/2306Z
BECMG 2218/2220 29008KT
BECMG 2310/2312 12010KT


Example: see airport list